Terminal Aerodrome Forecast
Issued by NWS

Home | Current Version | Previous Version | Text Only | Print | Product List | Glossary On
Versions: 1 2 3 4 5 6 7 8 9 10 11 12 13 14 15 16 17 18
861
FTAK31 PAJN 102335
TAFAYA
TAF
PAYA 102335Z 1100/1124 07010KT P6SM VCSH SCT025 SCT040 OVC070
      TEMPO 1100/1104 2SM -RA BR FEW010 BKN015 OVC040
     FM110600 08010G18KT 4SM -RA BR SCT010 BKN025 OVC050
      WS020/12035KT
      AMD LTD TO CLD VIS AND WIND 1101/1109=

USA.gov is the U.S. government's official web portal to all federal, state and local government web resources and services.